sensor_id;sensor_type;location;lat;lon;timestamp;pressure;altitude;pressure_sealevel;temperature;humidity
46846;BME280;33947;46.804;134.252;2023-04-30T00:01:38;98636.59;;;6.25;77.55
46846;BME280;33947;46.804;134.252;2023-04-30T00:04:45;98621.53;;;6.70;75.99
46846;BME280;33947;46.804;134.252;2023-04-30T00:07:50;98625.84;;;6.73;75.36
46846;BME280;33947;46.804;134.252;2023-04-30T00:14:39;98629.06;;;6.79;75.19
46846;BME280;33947;46.804;134.252;2023-04-30T00:17:44;98631.56;;;6.62;75.79
46846;BME280;33947;46.804;134.252;2023-04-30T00:20:49;98591.00;;;6.85;74.72
46846;BME280;33947;46.804;134.252;2023-04-30T00:23:58;98621.50;;;6.92;73.93
46846;BME280;33947;46.804;134.252;2023-04-30T00:27:06;98631.13;;;7.14;74.26
46846;BME280;33947;46.804;134.252;2023-04-30T00:30:11;98623.09;;;6.76;76.04
46846;BME280;33947;46.804;134.252;2023-04-30T00:33:16;98595.22;;;6.89;75.65
46846;BME280;33947;46.804;134.252;2023-04-30T00:36:24;98625.44;;;7.23;76.17
46846;BME280;33947;46.804;134.252;2023-04-30T00:39:29;98632.84;;;7.55;73.86
46846;BME280;33947;46.804;134.252;2023-04-30T00:42:34;98593.66;;;7.06;74.46
46846;BME280;33947;46.804;134.252;2023-04-30T00:45:38;98626.56;;;7.58;73.10
46846;BME280;33947;46.804;134.252;2023-04-30T00:48:43;98621.72;;;7.67;73.17
46846;BME280;33947;46.804;134.252;2023-04-30T00:51:53;98604.56;;;7.57;73.10
46846;BME280;33947;46.804;134.252;2023-04-30T00:54:58;98623.94;;;7.77;74.33
46846;BME280;33947;46.804;134.252;2023-04-30T00:58:06;98552.53;;;6.79;73.46
46846;BME280;33947;46.804;134.252;2023-04-30T01:01:31;98620.19;;;7.03;74.71
46846;BME280;33947;46.804;134.252;2023-04-30T01:04:38;98595.19;;;6.91;75.10
46846;BME280;33947;46.804;134.252;2023-04-30T01:07:43;98610.25;;;7.29;74.37
46846;BME280;33947;46.804;134.252;2023-04-30T01:11:14;98612.72;;;6.92;74.48
46846;BME280;33947;46.804;134.252;2023-04-30T01:18:17;98619.63;;;7.55;76.27
46846;BME280;33947;46.804;134.252;2023-04-30T01:21:26;98615.72;;;7.64;75.02
46846;BME280;33947;46.804;134.252;2023-04-30T01:31:14;98584.97;;;8.36;69.47
46846;BME280;33947;46.804;134.252;2023-04-30T01:34:25;98611.59;;;8.33;71.23
46846;BME280;33947;46.804;134.252;2023-04-30T01:37:36;98615.09;;;8.53;71.13
46846;BME280;33947;46.804;134.252;2023-04-30T01:40:52;98603.28;;;8.04;72.51
46846;BME280;33947;46.804;134.252;2023-04-30T01:44:06;98615.94;;;8.34;70.47
46846;BME280;33947;46.804;134.252;2023-04-30T01:50:51;98626.97;;;8.25;71.12
46846;BME280;33947;46.804;134.252;2023-04-30T01:54:22;98612.06;;;8.42;69.45
46846;BME280;33947;46.804;134.252;2023-04-30T01:57:42;98627.38;;;8.72;68.97
46846;BME280;33947;46.804;134.252;2023-04-30T02:00:49;98623.34;;;9.00;67.78
46846;BME280;33947;46.804;134.252;2023-04-30T02:03:55;98611.00;;;9.16;68.57
46846;BME280;33947;46.804;134.252;2023-04-30T02:07:00;98610.78;;;9.21;66.90
46846;BME280;33947;46.804;134.252;2023-04-30T02:10:06;98624.41;;;9.13;67.30
46846;BME280;33947;46.804;134.252;2023-04-30T02:13:16;98607.63;;;8.96;68.04
46846;BME280;33947;46.804;134.252;2023-04-30T02:23:46;98543.22;;;8.61;67.43
46846;BME280;33947;46.804;134.252;2023-04-30T02:26:55;98626.91;;;9.34;66.84
46846;BME280;33947;46.804;134.252;2023-04-30T02:30:00;98604.59;;;9.20;67.05
46846;BME280;33947;46.804;134.252;2023-04-30T02:33:07;98618.81;;;9.53;66.48
46846;BME280;33947;46.804;134.252;2023-04-30T02:36:15;98621.97;;;9.60;66.39
46846;BME280;33947;46.804;134.252;2023-04-30T02:39:22;98619.78;;;9.68;66.92
46846;BME280;33947;46.804;134.252;2023-04-30T02:42:36;98605.19;;;9.43;66.07
46846;BME280;33947;46.804;134.252;2023-04-30T02:45:40;98615.81;;;9.25;66.55
46846;BME280;33947;46.804;134.252;2023-04-30T02:48:50;98616.50;;;8.95;67.13
46846;BME280;33947;46.804;134.252;2023-04-30T02:52:03;98614.41;;;9.36;65.60
46846;BME280;33947;46.804;134.252;2023-04-30T02:55:11;98611.41;;;9.08;66.81
46846;BME280;33947;46.804;134.252;2023-04-30T02:58:15;98602.66;;;9.24;67.27
46846;BME280;33947;46.804;134.252;2023-04-30T03:01:29;98614.59;;;9.15;67.46
46846;BME280;33947;46.804;134.252;2023-04-30T03:04:34;98624.63;;;9.26;67.78
46846;BME280;33947;46.804;134.252;2023-04-30T03:07:38;98607.03;;;9.25;67.11
46846;BME280;33947;46.804;134.252;2023-04-30T03:10:51;98612.22;;;9.44;66.81
46846;BME280;33947;46.804;134.252;2023-04-30T03:14:15;98628.00;;;9.30;67.10
46846;BME280;33947;46.804;134.252;2023-04-30T03:17:22;98632.19;;;9.34;67.48
46846;BME280;33947;46.804;134.252;2023-04-30T03:20:27;98571.53;;;9.11;66.87
46846;BME280;33947;46.804;134.252;2023-04-30T03:23:38;98610.22;;;9.14;67.16
46846;BME280;33947;46.804;134.252;2023-04-30T03:26:43;98617.69;;;9.23;67.38
46846;BME280;33947;46.804;134.252;2023-04-30T03:29:50;98628.00;;;9.30;66.82
46846;BME280;33947;46.804;134.252;2023-04-30T03:32:56;98604.81;;;9.00;67.24
46846;BME280;33947;46.804;134.252;2023-04-30T03:36:01;98633.28;;;9.30;66.54
46846;BME280;33947;46.804;134.252;2023-04-30T03:39:08;98644.03;;;9.26;65.97
46846;BME280;33947;46.804;134.252;2023-04-30T03:42:14;98658.09;;;8.93;66.83
46846;BME280;33947;46.804;134.252;2023-04-30T03:45:21;98634.94;;;8.97;66.67
46846;BME280;33947;46.804;134.252;2023-04-30T03:48:25;98650.59;;;9.02;66.67
46846;BME280;33947;46.804;134.252;2023-04-30T03:51:35;98648.50;;;8.73;68.60
46846;BME280;33947;46.804;134.252;2023-04-30T03:54:45;98657.69;;;9.01;67.63
46846;BME280;33947;46.804;134.252;2023-04-30T03:57:50;98650.75;;;8.63;67.82
46846;BME280;33947;46.804;134.252;2023-04-30T04:00:59;98654.19;;;9.01;67.26
46846;BME280;33947;46.804;134.252;2023-04-30T04:04:07;98652.63;;;8.96;67.50
46846;BME280;33947;46.804;134.252;2023-04-30T04:07:14;98668.53;;;8.96;67.70
46846;BME280;33947;46.804;134.252;2023-04-30T04:10:19;98668.84;;;8.90;67.13
46846;BME280;33947;46.804;134.252;2023-04-30T04:13:24;98652.47;;;9.00;67.01
46846;BME280;33947;46.804;134.252;2023-04-30T04:16:32;98665.72;;;9.00;67.17
46846;BME280;33947;46.804;134.252;2023-04-30T04:19:44;98653.78;;;8.91;67.88
46846;BME280;33947;46.804;134.252;2023-04-30T04:22:51;98673.81;;;9.32;67.83
46846;BME280;33947;46.804;134.252;2023-04-30T04:25:57;98672.25;;;9.10;67.54
46846;BME280;33947;46.804;134.252;2023-04-30T04:29:04;98668.84;;;9.08;68.70
46846;BME280;33947;46.804;134.252;2023-04-30T04:32:17;98677.41;;;8.95;68.85
46846;BME280;33947;46.804;134.252;2023-04-30T04:35:21;98681.16;;;8.91;69.29
46846;BME280;33947;46.804;134.252;2023-04-30T04:38:26;98687.66;;;9.19;68.77
46846;BME280;33947;46.804;134.252;2023-04-30T04:41:33;98680.06;;;9.47;68.19
46846;BME280;33947;46.804;134.252;2023-04-30T04:44:42;98675.09;;;9.58;67.65
46846;BME280;33947;46.804;134.252;2023-04-30T04:47:50;98676.53;;;9.64;68.14
46846;BME280;33947;46.804;134.252;2023-04-30T04:50:56;98669.06;;;9.72;68.41
46846;BME280;33947;46.804;134.252;2023-04-30T04:54:00;98689.06;;;9.78;68.20
46846;BME280;33947;46.804;134.252;2023-04-30T04:57:05;98666.47;;;9.19;68.72
46846;BME280;33947;46.804;134.252;2023-04-30T05:00:09;98676.03;;;9.57;69.08
46846;BME280;33947;46.804;134.252;2023-04-30T05:03:15;98675.19;;;9.73;68.12
46846;BME280;33947;46.804;134.252;2023-04-30T05:06:20;98684.75;;;9.59;67.60
46846;BME280;33947;46.804;134.252;2023-04-30T05:09:25;98685.59;;;9.60;67.77
46846;BME280;33947;46.804;134.252;2023-04-30T05:12:30;98693.09;;;9.51;68.31
46846;BME280;33947;46.804;134.252;2023-04-30T05:15:36;98687.13;;;9.48;68.10
46846;BME280;33947;46.804;134.252;2023-04-30T05:18:43;98704.47;;;9.53;68.27
46846;BME280;33947;46.804;134.252;2023-04-30T05:21:50;98702.94;;;9.49;68.64
46846;BME280;33947;46.804;134.252;2023-04-30T05:28:29;98623.03;;;8.71;68.83
46846;BME280;33947;46.804;134.252;2023-04-30T05:31:39;98707.53;;;8.75;70.33
46846;BME280;33947;46.804;134.252;2023-04-30T05:34:45;98691.69;;;8.74;70.23
46846;BME280;33947;46.804;134.252;2023-04-30T05:37:49;98703.94;;;8.94;69.77
46846;BME280;33947;46.804;134.252;2023-04-30T05:41:00;98699.63;;;9.10;69.06
46846;BME280;33947;46.804;134.252;2023-04-30T05:44:04;98715.47;;;8.93;69.03
46846;BME280;33947;46.804;134.252;2023-04-30T05:47:09;98713.41;;;9.00;68.87
46846;BME280;33947;46.804;134.252;2023-04-30T05:50:13;98712.84;;;8.93;69.06
46846;BME280;33947;46.804;134.252;2023-04-30T05:53:19;98716.34;;;8.93;68.40
46846;BME280;33947;46.804;134.252;2023-04-30T05:56:23;98712.84;;;8.93;68.61
46846;BME280;33947;46.804;134.252;2023-04-30T05:59:28;98713.75;;;8.92;68.34
46846;BME280;33947;46.804;134.252;2023-04-30T06:02:33;98720.78;;;8.93;68.27
46846;BME280;33947;46.804;134.252;2023-04-30T06:05:38;98715.00;;;8.85;68.56
46846;BME280;33947;46.804;134.252;2023-04-30T06:08:46;98721.88;;;8.89;69.20
46846;BME280;33947;46.804;134.252;2023-04-30T06:11:53;98732.97;;;8.78;69.91
46846;BME280;33947;46.804;134.252;2023-04-30T06:15:00;98711.88;;;8.76;70.29
46846;BME280;33947;46.804;134.252;2023-04-30T06:18:06;98733.75;;;8.80;70.77
46846;BME280;33947;46.804;134.252;2023-04-30T06:21:11;98732.81;;;8.81;70.91
46846;BME280;33947;46.804;134.252;2023-04-30T06:24:15;98727.63;;;8.79;70.80
46846;BME280;33947;46.804;134.252;2023-04-30T06:27:20;98734.38;;;8.85;71.88
46846;BME280;33947;46.804;134.252;2023-04-30T06:30:48;98657.50;;;8.32;72.16
46846;BME280;33947;46.804;134.252;2023-04-30T06:34:02;98730.81;;;8.49;73.77
46846;BME280;33947;46.804;134.252;2023-04-30T06:37:08;98752.25;;;8.24;76.37
46846;BME280;33947;46.804;134.252;2023-04-30T06:40:14;98737.31;;;8.23;76.34
46846;BME280;33947;46.804;134.252;2023-04-30T06:43:20;98749.16;;;8.33;76.00
46846;BME280;33947;46.804;134.252;2023-04-30T06:46:24;98757.75;;;8.38;75.72
46846;BME280;33947;46.804;134.252;2023-04-30T06:49:31;98760.69;;;8.32;77.03
46846;BME280;33947;46.804;134.252;2023-04-30T06:52:45;98757.88;;;7.76;81.11
46846;BME280;33947;46.804;134.252;2023-04-30T06:55:56;98764.34;;;7.90;80.41
46846;BME280;33947;46.804;134.252;2023-04-30T06:59:24;98736.69;;;7.57;81.59
46846;BME280;33947;46.804;134.252;2023-04-30T07:02:29;98758.69;;;7.58;82.47
46846;BME280;33947;46.804;134.252;2023-04-30T07:05:43;98761.66;;;7.50;83.78
46846;BME280;33947;46.804;134.252;2023-04-30T07:08:57;98780.72;;;7.15;83.63
46846;BME280;33947;46.804;134.252;2023-04-30T07:12:05;98809.53;;;6.99;84.87
46846;BME280;33947;46.804;134.252;2023-04-30T07:15:17;98808.97;;;7.13;83.75
46846;BME280;33947;46.804;134.252;2023-04-30T07:18:21;98800.28;;;6.89;83.85
46846;BME280;33947;46.804;134.252;2023-04-30T07:21:32;98810.03;;;6.87;84.15
46846;BME280;33947;46.804;134.252;2023-04-30T07:24:36;98797.13;;;6.79;84.02
46846;BME280;33947;46.804;134.252;2023-04-30T07:27:40;98797.00;;;6.82;83.00
46846;BME280;33947;46.804;134.252;2023-04-30T07:30:45;98813.44;;;6.66;84.86
46846;BME280;33947;46.804;134.252;2023-04-30T07:33:49;98830.81;;;6.72;84.41
46846;BME280;33947;46.804;134.252;2023-04-30T07:36:56;98848.19;;;6.78;84.09
46846;BME280;33947;46.804;134.252;2023-04-30T07:40:02;98827.66;;;6.62;84.62
46846;BME280;33947;46.804;134.252;2023-04-30T07:43:12;98837.47;;;6.59;85.88
46846;BME280;33947;46.804;134.252;2023-04-30T07:46:17;98841.31;;;6.50;85.09
46846;BME280;33947;46.804;134.252;2023-04-30T07:49:22;98846.94;;;6.64;84.83
46846;BME280;33947;46.804;134.252;2023-04-30T07:52:26;98856.63;;;6.64;85.18
46846;BME280;33947;46.804;134.252;2023-04-30T07:55:31;98864.16;;;6.51;85.91
46846;BME280;33947;46.804;134.252;2023-04-30T07:58:35;98855.03;;;6.60;86.01
46846;BME280;33947;46.804;134.252;2023-04-30T08:01:41;98872.78;;;6.78;85.81
46846;BME280;33947;46.804;134.252;2023-04-30T08:04:46;98869.94;;;6.61;85.17
46846;BME280;33947;46.804;134.252;2023-04-30T08:07:50;98862.88;;;6.61;84.77
46846;BME280;33947;46.804;134.252;2023-04-30T08:10:56;98886.53;;;6.64;84.48
46846;BME280;33947;46.804;134.252;2023-04-30T08:14:04;98885.66;;;6.64;84.31
46846;BME280;33947;46.804;134.252;2023-04-30T08:17:09;98883.00;;;6.88;83.89
46846;BME280;33947;46.804;134.252;2023-04-30T08:20:17;98900.69;;;6.62;83.25
46846;BME280;33947;46.804;134.252;2023-04-30T08:23:21;98908.97;;;6.27;86.65
46846;BME280;33947;46.804;134.252;2023-04-30T08:26:27;98915.78;;;6.33;85.89
46846;BME280;33947;46.804;134.252;2023-04-30T08:29:36;98913.56;;;6.46;86.02
46846;BME280;33947;46.804;134.252;2023-04-30T08:32:43;98908.72;;;6.59;84.84
46846;BME280;33947;46.804;134.252;2023-04-30T08:35:48;98913.66;;;6.68;82.73
46846;BME280;33947;46.804;134.252;2023-04-30T08:38:54;98929.19;;;6.76;82.67
46846;BME280;33947;46.804;134.252;2023-04-30T08:42:01;98933.19;;;6.62;81.75
46846;BME280;33947;46.804;134.252;2023-04-30T08:45:11;98946.59;;;6.32;84.09
46846;BME280;33947;46.804;134.252;2023-04-30T08:48:29;98948.72;;;6.21;85.42
46846;BME280;33947;46.804;134.252;2023-04-30T08:51:38;98967.25;;;6.45;84.49
46846;BME280;33947;46.804;134.252;2023-04-30T08:54:45;98966.59;;;6.38;84.09
46846;BME280;33947;46.804;134.252;2023-04-30T08:57:50;98975.53;;;6.34;84.21
46846;BME280;33947;46.804;134.252;2023-04-30T09:01:00;98975.75;;;6.28;84.10
46846;BME280;33947;46.804;134.252;2023-04-30T09:04:07;98985.28;;;6.32;84.00
46846;BME280;33947;46.804;134.252;2023-04-30T09:07:12;98971.03;;;6.37;83.61
46846;BME280;33947;46.804;134.252;2023-04-30T09:10:18;98994.75;;;6.37;82.45
46846;BME280;33947;46.804;134.252;2023-04-30T09:13:24;98992.94;;;6.13;84.46
46846;BME280;33947;46.804;134.252;2023-04-30T09:16:43;99010.50;;;6.14;84.11
46846;BME280;33947;46.804;134.252;2023-04-30T09:19:48;99001.28;;;6.27;83.66
46846;BME280;33947;46.804;134.252;2023-04-30T09:23:08;99003.50;;;6.13;83.75
46846;BME280;33947;46.804;134.252;2023-04-30T09:26:31;99028.72;;;6.21;83.21
46846;BME280;33947;46.804;134.252;2023-04-30T09:29:38;99021.00;;;6.15;82.89
46846;BME280;33947;46.804;134.252;2023-04-30T09:32:54;99012.94;;;5.91;83.22
46846;BME280;33947;46.804;134.252;2023-04-30T09:36:08;99050.19;;;5.80;85.27
46846;BME280;33947;46.804;134.252;2023-04-30T09:39:18;98916.78;;;4.94;85.57
46846;BME280;33947;46.804;134.252;2023-04-30T09:42:25;99037.09;;;5.77;85.11
46846;BME280;33947;46.804;134.252;2023-04-30T09:45:45;99056.88;;;5.62;86.61
46846;BME280;33947;46.804;134.252;2023-04-30T09:49:02;99063.47;;;5.47;87.56
46846;BME280;33947;46.804;134.252;2023-04-30T09:52:10;99068.84;;;5.44;89.01
46846;BME280;33947;46.804;134.252;2023-04-30T09:55:17;99044.50;;;5.36;87.93
46846;BME280;33947;46.804;134.252;2023-04-30T09:58:25;99057.47;;;5.44;88.55
46846;BME280;33947;46.804;134.252;2023-04-30T10:01:31;99066.03;;;5.20;89.14
46846;BME280;33947;46.804;134.252;2023-04-30T10:04:57;99042.72;;;5.06;89.45
46846;BME280;33947;46.804;134.252;2023-04-30T10:08:04;99072.97;;;5.23;89.00
46846;BME280;33947;46.804;134.252;2023-04-30T10:11:14;99081.53;;;5.31;88.49
46846;BME280;33947;46.804;134.252;2023-04-30T10:14:28;99096.44;;;5.31;88.10
46846;BME280;33947;46.804;134.252;2023-04-30T10:17:37;99003.56;;;4.64;88.52
46846;BME280;33947;46.804;134.252;2023-04-30T10:20:47;99110.13;;;5.44;88.24
46846;BME280;33947;46.804;134.252;2023-04-30T10:23:54;99111.63;;;5.21;88.15
46846;BME280;33947;46.804;134.252;2023-04-30T10:27:02;99109.00;;;5.21;88.06
46846;BME280;33947;46.804;134.252;2023-04-30T10:30:09;99136.22;;;5.21;87.88
46846;BME280;33947;46.804;134.252;2023-04-30T10:36:38;99151.34;;;5.13;88.24
46846;BME280;33947;46.804;134.252;2023-04-30T10:39:52;99058.09;;;4.57;88.59
46846;BME280;33947;46.804;134.252;2023-04-30T10:43:05;99080.66;;;4.66;87.09
46846;BME280;33947;46.804;134.252;2023-04-30T10:46:11;99177.06;;;5.02;88.40
46846;BME280;33947;46.804;134.252;2023-04-30T10:49:24;99148.47;;;4.89;88.41
46846;BME280;33947;46.804;134.252;2023-04-30T10:52:29;99195.56;;;5.33;87.12
46846;BME280;33947;46.804;134.252;2023-04-30T10:55:47;99197.94;;;5.43;85.43
46846;BME280;33947;46.804;134.252;2023-04-30T10:58:58;99207.38;;;5.18;86.06
46846;BME280;33947;46.804;134.252;2023-04-30T11:02:04;99210.59;;;5.28;86.82
46846;BME280;33947;46.804;134.252;2023-04-30T11:05:10;99217.84;;;5.20;86.74
46846;BME280;33947;46.804;134.252;2023-04-30T11:08:15;99223.81;;;5.27;86.54
46846;BME280;33947;46.804;134.252;2023-04-30T11:11:19;99222.13;;;5.24;86.01
46846;BME280;33947;46.804;134.252;2023-04-30T11:14:24;99238.06;;;5.19;85.52
46846;BME280;33947;46.804;134.252;2023-04-30T11:17:28;99203.97;;;4.80;86.46
46846;BME280;33947;46.804;134.252;2023-04-30T11:20:32;99167.56;;;4.61;85.87
46846;BME280;33947;46.804;134.252;2023-04-30T11:23:46;99251.66;;;5.01;86.53
46846;BME280;33947;46.804;134.252;2023-04-30T11:27:12;99261.78;;;4.82;87.43
46846;BME280;33947;46.804;134.252;2023-04-30T11:30:17;99263.16;;;4.60;88.56
46846;BME280;33947;46.804;134.252;2023-04-30T11:33:23;99273.22;;;4.81;87.92
46846;BME280;33947;46.804;134.252;2023-04-30T11:36:29;99275.97;;;4.76;87.96
46846;BME280;33947;46.804;134.252;2023-04-30T11:39:41;99272.94;;;4.54;86.36
46846;BME280;33947;46.804;134.252;2023-04-30T11:42:47;99224.91;;;4.08;87.42
46846;BME280;33947;46.804;134.252;2023-04-30T11:49:11;99265.94;;;4.54;86.19
46846;BME280;33947;46.804;134.252;2023-04-30T11:52:20;99282.19;;;4.72;86.32
46846;BME280;33947;46.804;134.252;2023-04-30T11:55:36;99276.16;;;4.67;85.51
46846;BME280;33947;46.804;134.252;2023-04-30T11:58:57;99283.44;;;4.55;86.44
46846;BME280;33947;46.804;134.252;2023-04-30T12:02:14;99215.97;;;4.15;85.20
46846;BME280;33947;46.804;134.252;2023-04-30T12:05:52;99292.22;;;4.56;85.58
46846;BME280;33947;46.804;134.252;2023-04-30T12:09:03;99259.94;;;4.47;85.25
46846;BME280;33947;46.804;134.252;2023-04-30T12:12:09;99286.31;;;4.44;86.14
46846;BME280;33947;46.804;134.252;2023-04-30T12:15:16;99288.94;;;4.02;88.02
46846;BME280;33947;46.804;134.252;2023-04-30T12:18:20;99311.00;;;4.39;88.56
46846;BME280;33947;46.804;134.252;2023-04-30T12:21:29;99293.84;;;4.20;87.21
46846;BME280;33947;46.804;134.252;2023-04-30T12:24:34;99318.06;;;4.35;87.95
46846;BME280;33947;46.804;134.252;2023-04-30T12:27:40;99300.66;;;4.29;86.59
46846;BME280;33947;46.804;134.252;2023-04-30T12:30:48;99281.88;;;4.05;87.75
46846;BME280;33947;46.804;134.252;2023-04-30T12:33:54;99302.56;;;4.21;87.49
46846;BME280;33947;46.804;134.252;2023-04-30T12:37:01;99316.75;;;4.14;88.09
46846;BME280;33947;46.804;134.252;2023-04-30T12:40:08;99310.91;;;3.99;87.78
46846;BME280;33947;46.804;134.252;2023-04-30T12:43:15;99331.38;;;3.82;89.47
46846;BME280;33947;46.804;134.252;2023-04-30T12:46:25;99339.00;;;3.96;90.09
46846;BME280;33947;46.804;134.252;2023-04-30T12:49:33;99330.03;;;4.08;89.09
46846;BME280;33947;46.804;134.252;2023-04-30T12:52:47;99328.25;;;4.08;88.08
46846;BME280;33947;46.804;134.252;2023-04-30T12:56:15;99331.25;;;3.89;88.70
46846;BME280;33947;46.804;134.252;2023-04-30T12:59:20;99348.09;;;3.78;88.65
46846;BME280;33947;46.804;134.252;2023-04-30T13:02:27;99350.53;;;3.87;89.06
46846;BME280;33947;46.804;134.252;2023-04-30T13:05:31;99360.28;;;3.82;89.30
46846;BME280;33947;46.804;134.252;2023-04-30T13:08:35;99361.88;;;3.89;88.55
46846;BME280;33947;46.804;134.252;2023-04-30T13:12:01;99345.91;;;3.53;89.11
46846;BME280;33947;46.804;134.252;2023-04-30T13:15:10;99345.03;;;3.52;89.28
46846;BME280;33947;46.804;134.252;2023-04-30T13:18:21;99358.97;;;3.56;89.57
46846;BME280;33947;46.804;134.252;2023-04-30T13:21:26;99365.94;;;3.60;88.33
46846;BME280;33947;46.804;134.252;2023-04-30T13:24:30;99366.16;;;3.44;88.66
46846;BME280;33947;46.804;134.252;2023-04-30T13:27:36;99364.44;;;3.43;89.24
46846;BME280;33947;46.804;134.252;2023-04-30T13:30:40;99350.81;;;3.21;89.09
46846;BME280;33947;46.804;134.252;2023-04-30T13:33:45;99368.28;;;3.22;89.33
46846;BME280;33947;46.804;134.252;2023-04-30T13:36:52;99369.13;;;3.24;90.53
46846;BME280;33947;46.804;134.252;2023-04-30T13:39:57;99348.50;;;2.99;91.23
46846;BME280;33947;46.804;134.252;2023-04-30T13:43:05;99378.13;;;3.08;90.99
46846;BME280;33947;46.804;134.252;2023-04-30T13:46:12;99364.28;;;2.98;91.54
46846;BME280;33947;46.804;134.252;2023-04-30T13:49:16;99394.53;;;3.22;91.68
46846;BME280;33947;46.804;134.252;2023-04-30T13:52:21;99398.88;;;3.25;91.07
46846;BME280;33947;46.804;134.252;2023-04-30T13:55:31;99404.03;;;3.31;90.42
46846;BME280;33947;46.804;134.252;2023-04-30T13:58:36;99400.81;;;3.10;90.76
46846;BME280;33947;46.804;134.252;2023-04-30T14:01:40;99391.31;;;3.03;91.61
46846;BME280;33947;46.804;134.252;2023-04-30T14:04:47;99414.00;;;3.07;91.32
46846;BME280;33947;46.804;134.252;2023-04-30T14:08:07;99418.28;;;3.13;91.93
46846;BME280;33947;46.804;134.252;2023-04-30T14:11:15;99419.03;;;3.19;91.49
46846;BME280;33947;46.804;134.252;2023-04-30T14:14:19;99409.44;;;3.20;91.63
46846;BME280;33947;46.804;134.252;2023-04-30T14:17:24;99430.22;;;3.32;90.65
46846;BME280;33947;46.804;134.252;2023-04-30T14:20:30;99432.06;;;3.27;90.16
46846;BME280;33947;46.804;134.252;2023-04-30T14:23:35;99440.88;;;3.22;90.77
46846;BME280;33947;46.804;134.252;2023-04-30T14:26:44;99445.22;;;3.26;90.57
46846;BME280;33947;46.804;134.252;2023-04-30T14:29:51;99443.59;;;3.15;89.76
46846;BME280;33947;46.804;134.252;2023-04-30T14:32:55;99460.13;;;3.22;91.69
46846;BME280;33947;46.804;134.252;2023-04-30T14:35:59;99446.28;;;3.12;90.73
46846;BME280;33947;46.804;134.252;2023-04-30T14:39:03;99464.59;;;3.15;91.47
46846;BME280;33947;46.804;134.252;2023-04-30T14:42:07;99434.41;;;2.86;91.99
46846;BME280;33947;46.804;134.252;2023-04-30T14:45:11;99470.03;;;3.04;91.37
46846;BME280;33947;46.804;134.252;2023-04-30T14:48:18;99473.31;;;3.17;91.29
46846;BME280;33947;46.804;134.252;2023-04-30T14:51:23;99476.09;;;3.07;91.56
46846;BME280;33947;46.804;134.252;2023-04-30T14:54:31;99466.56;;;3.01;91.79
46846;BME280;33947;46.804;134.252;2023-04-30T14:57:35;99476.78;;;3.21;91.75
46846;BME280;33947;46.804;134.252;2023-04-30T15:00:40;99468.03;;;3.21;91.00
46846;BME280;33947;46.804;134.252;2023-04-30T15:03:44;99473.16;;;3.30;90.64
46846;BME280;33947;46.804;134.252;2023-04-30T15:06:49;99485.22;;;3.43;90.40
46846;BME280;33947;46.804;134.252;2023-04-30T15:09:53;99482.53;;;3.48;89.23
46846;BME280;33947;46.804;134.252;2023-04-30T15:13:03;99476.34;;;3.52;89.47
46846;BME280;33947;46.804;134.252;2023-04-30T15:16:07;99479.69;;;3.62;88.51
46846;BME280;33947;46.804;134.252;2023-04-30T15:19:12;99502.28;;;3.72;88.74
46846;BME280;33947;46.804;134.252;2023-04-30T15:22:19;99491.19;;;3.53;88.70
46846;BME280;33947;46.804;134.252;2023-04-30T15:25:24;99464.41;;;3.31;88.79
46846;BME280;33947;46.804;134.252;2023-04-30T15:28:31;99500.88;;;3.50;89.50
46846;BME280;33947;46.804;134.252;2023-04-30T15:31:35;99505.47;;;3.33;89.28
46846;BME280;33947;46.804;134.252;2023-04-30T15:34:41;99522.00;;;3.40;91.26
46846;BME280;33947;46.804;134.252;2023-04-30T15:37:45;99523.56;;;3.54;90.04
46846;BME280;33947;46.804;134.252;2023-04-30T15:40:52;99516.75;;;3.39;90.61
46846;BME280;33947;46.804;134.252;2023-04-30T15:43:56;99520.41;;;3.30;90.05
46846;BME280;33947;46.804;134.252;2023-04-30T15:47:01;99529.97;;;3.34;90.80
46846;BME280;33947;46.804;134.252;2023-04-30T15:50:06;99529.13;;;3.30;90.22
46846;BME280;33947;46.804;134.252;2023-04-30T15:53:12;99534.34;;;3.33;89.97
46846;BME280;33947;46.804;134.252;2023-04-30T15:56:19;99516.94;;;3.28;90.21
46846;BME280;33947;46.804;134.252;2023-04-30T15:59:29;99534.38;;;3.32;89.13
46846;BME280;33947;46.804;134.252;2023-04-30T16:02:34;99546.47;;;3.44;90.21
46846;BME280;33947;46.804;134.252;2023-04-30T16:05:39;99556.91;;;3.48;89.97
46846;BME280;33947;46.804;134.252;2023-04-30T16:08:47;99563.75;;;3.60;89.71
46846;BME280;33947;46.804;134.252;2023-04-30T16:11:52;99561.25;;;3.50;88.68
46846;BME280;33947;46.804;134.252;2023-04-30T16:14:58;99565.75;;;3.41;89.11
46846;BME280;33947;46.804;134.252;2023-04-30T16:18:02;99576.34;;;3.35;89.99
46846;BME280;33947;46.804;134.252;2023-04-30T16:21:09;99566.78;;;3.31;89.25
46846;BME280;33947;46.804;134.252;2023-04-30T16:24:14;99574.28;;;3.57;89.19
46846;BME280;33947;46.804;134.252;2023-04-30T16:27:19;99587.50;;;3.50;88.90
46846;BME280;33947;46.804;134.252;2023-04-30T16:30:26;99588.41;;;3.50;89.25
46846;BME280;33947;46.804;134.252;2023-04-30T16:33:31;99601.41;;;3.59;88.83
46846;BME280;33947;46.804;134.252;2023-04-30T16:36:40;99607.16;;;3.17;89.69
46846;BME280;33947;46.804;134.252;2023-04-30T16:39:47;99618.41;;;3.29;90.40
46846;BME280;33947;46.804;134.252;2023-04-30T16:42:51;99619.22;;;3.32;90.16
46846;BME280;33947;46.804;134.252;2023-04-30T16:45:56;99617.59;;;3.24;90.06
46846;BME280;33947;46.804;134.252;2023-04-30T16:49:03;99618.59;;;3.13;89.69
46846;BME280;33947;46.804;134.252;2023-04-30T16:52:08;99610.91;;;2.96;90.10
46846;BME280;33947;46.804;134.252;2023-04-30T16:55:13;99611.78;;;2.95;90.68
46846;BME280;33947;46.804;134.252;2023-04-30T16:58:18;99636.22;;;3.00;91.35